createdAt,value
2023-03-02T00:01:10.830Z,1.03
2023-03-02T00:03:41.032Z,1.00
2023-03-02T00:06:09.791Z,0.70
2023-03-02T00:08:38.369Z,1.20
2023-03-02T00:11:05.612Z,0.70
2023-03-02T00:13:34.564Z,1.37
2023-03-02T00:16:01.676Z,1.47
2023-03-02T00:18:28.872Z,1.93
2023-03-02T00:20:56.202Z,0.90
2023-03-02T00:23:23.217Z,1.03
2023-03-02T00:25:50.460Z,1.00
2023-03-02T00:28:17.507Z,0.90
2023-03-02T00:30:44.507Z,0.60
2023-03-02T00:33:11.951Z,1.00
2023-03-02T00:35:41.118Z,0.80
2023-03-02T00:38:08.997Z,0.90
2023-03-02T00:40:36.903Z,0.97
2023-03-02T00:43:04.398Z,1.10
2023-03-02T00:45:31.655Z,0.80
2023-03-02T00:47:58.852Z,1.10
2023-03-02T00:50:26.077Z,1.50
2023-03-02T00:52:53.044Z,0.70
2023-03-02T00:55:20.170Z,1.30
2023-03-02T00:57:55.384Z,0.83
2023-03-02T01:00:23.492Z,0.73
2023-03-02T01:02:51.358Z,1.97
2023-03-02T01:05:18.578Z,0.70
2023-03-02T01:07:45.870Z,0.80
2023-03-02T01:10:13.115Z,0.90
2023-03-02T01:12:40.673Z,0.80
2023-03-02T01:15:10.154Z,0.80
2023-03-02T01:17:37.396Z,0.90
2023-03-02T01:20:08.602Z,0.90
2023-03-02T01:22:35.703Z,0.57
2023-03-02T01:25:04.671Z,1.27
2023-03-02T01:27:31.981Z,0.60
2023-03-02T01:29:59.112Z,0.60
2023-03-02T01:32:26.528Z,1.20
2023-03-02T01:34:54.842Z,0.50
2023-03-02T01:37:23.115Z,0.80
2023-03-02T01:39:50.878Z,0.50
2023-03-02T01:42:18.244Z,0.87
2023-03-02T01:44:57.436Z,0.80
2023-03-02T01:47:39.330Z,0.90
2023-03-02T01:50:29.214Z,1.10
2023-03-02T01:52:57.038Z,0.67
2023-03-02T01:55:29.554Z,0.80
2023-03-02T01:57:58.429Z,0.60
2023-03-02T02:00:29.985Z,0.60
2023-03-02T02:03:09.344Z,0.60
2023-03-02T02:05:42.742Z,0.50
2023-03-02T02:08:10.332Z,0.70
2023-03-02T02:10:37.596Z,0.80
2023-03-02T02:13:04.767Z,0.50
2023-03-02T02:15:31.990Z,1.00
2023-03-02T02:17:59.130Z,1.17
2023-03-02T02:20:35.965Z,0.40
2023-03-02T02:23:23.405Z,0.50
2023-03-02T02:25:53.203Z,0.60
2023-03-02T02:28:40.780Z,0.53
2023-03-02T02:31:20.257Z,0.63
2023-03-02T02:33:52.128Z,0.60
2023-03-02T02:36:23.497Z,0.60
2023-03-02T02:38:54.686Z,0.60
2023-03-02T02:41:35.831Z,0.50
2023-03-02T02:44:03.047Z,0.50
2023-03-02T02:46:30.520Z,0.60
2023-03-02T02:48:58.329Z,0.60
2023-03-02T02:51:29.732Z,0.50
2023-03-02T02:54:02.608Z,0.60
2023-03-02T02:56:36.769Z,0.57
2023-03-02T02:59:22.597Z,0.77
2023-03-02T03:01:50.581Z,0.80
2023-03-02T03:04:24.820Z,0.60
2023-03-02T03:06:58.571Z,0.60
2023-03-02T03:09:26.761Z,0.50
2023-03-02T03:11:57.165Z,0.40
2023-03-02T03:14:51.226Z,0.60
2023-03-02T03:17:18.525Z,0.57
2023-03-02T03:19:47.201Z,0.50
2023-03-02T03:22:16.506Z,0.60
2023-03-02T03:24:45.221Z,1.27
2023-03-02T03:27:15.224Z,0.90
2023-03-02T03:29:48.814Z,0.40
2023-03-02T03:32:16.036Z,0.70
2023-03-02T03:34:43.554Z,0.93
2023-03-02T03:37:13.735Z,0.60
2023-03-02T03:39:42.091Z,0.60
2023-03-02T03:42:09.980Z,0.70
2023-03-02T03:44:37.277Z,0.53
2023-03-02T03:47:04.295Z,0.67
2023-03-02T03:49:32.673Z,0.80
2023-03-02T03:51:59.966Z,0.90
2023-03-02T03:54:27.218Z,0.60
2023-03-02T03:56:54.231Z,0.40
2023-03-02T03:59:24.114Z,0.63
2023-03-02T04:01:58.599Z,0.60
2023-03-02T04:04:29.276Z,0.50
2023-03-02T04:06:56.647Z,0.50
2023-03-02T04:09:24.485Z,0.50
2023-03-02T04:11:53.962Z,1.10
2023-03-02T04:14:23.086Z,0.70
2023-03-02T04:16:50.845Z,0.80
2023-03-02T04:19:18.149Z,0.50
2023-03-02T04:21:51.402Z,0.60
2023-03-02T04:24:21.235Z,0.40
2023-03-02T04:26:49.273Z,0.50
2023-03-02T04:29:16.776Z,0.53
2023-03-02T04:31:44.355Z,0.60
2023-03-02T04:34:11.661Z,0.63
2023-03-02T04:36:40.449Z,0.80
2023-03-02T04:39:08.413Z,0.70
2023-03-02T04:41:35.691Z,0.70
2023-03-02T04:44:03.138Z,0.80
2023-03-02T04:46:30.668Z,0.57
2023-03-02T04:48:57.849Z,0.67
2023-03-02T04:51:28.054Z,0.87
2023-03-02T04:53:58.082Z,1.20
2023-03-02T04:56:25.418Z,0.60
2023-03-02T04:58:52.774Z,0.40
2023-03-02T05:01:20.323Z,0.73
2023-03-02T05:03:47.726Z,0.57
2023-03-02T05:06:15.494Z,0.60
2023-03-02T05:08:43.174Z,0.70
2023-03-02T05:11:22.213Z,0.47
2023-03-02T05:14:02.730Z,0.50
2023-03-02T05:16:32.834Z,0.60
2023-03-02T05:19:01.169Z,0.70
2023-03-02T05:21:28.284Z,0.50
2023-03-02T05:23:55.411Z,0.60
2023-03-02T05:26:22.707Z,0.80
2023-03-02T05:28:51.511Z,0.50
2023-03-02T05:31:35.327Z,0.60
2023-03-02T05:34:05.612Z,0.80
2023-03-02T05:36:32.980Z,0.60
2023-03-02T05:39:00.308Z,0.80
2023-03-02T05:41:27.566Z,0.87
2023-03-02T05:43:54.873Z,1.10
2023-03-02T05:46:22.218Z,0.80
2023-03-02T05:48:49.685Z,0.80
2023-03-02T05:51:16.760Z,0.60
2023-03-02T05:53:43.842Z,0.30
2023-03-02T05:56:11.212Z,0.53
2023-03-02T05:58:38.840Z,0.93
2023-03-02T06:01:14.880Z,0.60
2023-03-02T06:03:43.366Z,0.57
2023-03-02T06:06:14.373Z,0.67
2023-03-02T06:08:44.762Z,0.73
2023-03-02T06:11:12.986Z,0.70
2023-03-02T06:13:40.823Z,0.53
2023-03-02T06:16:08.827Z,0.80
2023-03-02T06:18:36.659Z,0.50
2023-03-02T06:21:04.351Z,0.80
2023-03-02T06:23:31.823Z,0.77
2023-03-02T06:25:59.164Z,1.00
2023-03-02T06:28:27.268Z,3.17
2023-03-02T06:30:54.334Z,0.80
2023-03-02T06:33:21.774Z,1.37
2023-03-02T06:35:49.818Z,0.67
2023-03-02T06:38:17.214Z,0.63
2023-03-02T06:40:44.568Z,0.80
2023-03-02T06:43:11.758Z,0.90
2023-03-02T06:45:38.983Z,0.60
2023-03-02T06:48:06.859Z,1.20
2023-03-02T06:50:35.076Z,1.00
2023-03-02T06:53:02.112Z,0.87
2023-03-02T06:55:29.138Z,1.13
2023-03-02T06:57:57.607Z,1.40
2023-03-02T07:00:26.432Z,0.90
2023-03-02T07:02:54.873Z,1.10
2023-03-02T07:05:23.727Z,1.10
2023-03-02T07:07:51.062Z,0.80
2023-03-02T07:10:18.390Z,0.90
2023-03-02T07:12:45.462Z,0.73
2023-03-02T07:15:14.346Z,0.80
2023-03-02T07:17:43.201Z,1.37
2023-03-02T07:20:12.180Z,0.90
2023-03-02T07:22:39.957Z,0.80
2023-03-02T07:25:08.178Z,0.80
2023-03-02T07:27:35.414Z,0.90
2023-03-02T07:30:02.429Z,1.40
2023-03-02T07:32:30.373Z,0.97
2023-03-02T07:34:57.794Z,1.13
2023-03-02T07:37:24.855Z,1.10
2023-03-02T07:39:51.892Z,1.30
2023-03-02T07:42:19.248Z,0.87
2023-03-02T07:44:46.491Z,1.00
2023-03-02T07:47:13.646Z,1.00
2023-03-02T07:49:41.040Z,0.70
2023-03-02T07:52:08.082Z,0.90
2023-03-02T07:54:35.306Z,1.20
2023-03-02T07:57:02.362Z,1.10
2023-03-02T07:59:29.602Z,1.20
2023-03-02T08:01:57.796Z,1.07
2023-03-02T08:04:25.378Z,1.13
2023-03-02T08:06:52.484Z,1.00
2023-03-02T08:09:19.599Z,1.10
2023-03-02T08:11:47.969Z,1.03
2023-03-02T08:14:15.065Z,1.10
2023-03-02T08:16:42.292Z,1.87
2023-03-02T08:19:09.874Z,1.00
2023-03-02T08:21:37.137Z,1.47
2023-03-02T08:24:04.639Z,1.57
2023-03-02T08:26:32.151Z,1.10
2023-03-02T08:28:59.696Z,1.20
2023-03-02T08:31:27.303Z,1.07
2023-03-02T08:33:54.646Z,1.70
2023-03-02T08:36:21.752Z,1.47
2023-03-02T08:38:49.545Z,2.13
2023-03-02T08:41:20.133Z,1.73
2023-03-02T08:43:48.149Z,2.10
2023-03-02T08:46:17.556Z,1.60
2023-03-02T08:48:45.440Z,1.40
2023-03-02T08:51:17.042Z,1.50
2023-03-02T08:53:47.537Z,1.53
2023-03-02T08:56:31.497Z,1.60
2023-03-02T08:59:01.912Z,2.00
2023-03-02T09:01:32.553Z,1.27
2023-03-02T09:04:01.032Z,2.50
2023-03-02T09:06:30.810Z,1.93
2023-03-02T09:08:58.340Z,3.13
2023-03-02T09:11:26.317Z,1.43
2023-03-02T09:13:54.769Z,1.70
2023-03-02T09:16:22.304Z,1.43
2023-03-02T09:18:49.520Z,2.07
2023-03-02T09:21:16.803Z,2.53
2023-03-02T09:23:43.802Z,2.20
2023-03-02T09:26:11.177Z,2.20
2023-03-02T09:28:39.204Z,2.60
2023-03-02T09:31:08.478Z,2.13
2023-03-02T09:33:36.064Z,2.10
2023-03-02T09:36:11.837Z,2.93
2023-03-02T09:38:39.579Z,1.53
2023-03-02T09:41:21.714Z,2.27
2023-03-02T09:44:23.784Z,2.20
2023-03-02T09:46:56.628Z,1.23
2023-03-02T09:49:39.241Z,1.60
2023-03-02T09:52:33.311Z,2.00
2023-03-02T09:55:22.198Z,3.30
2023-03-02T09:57:49.498Z,1.70
2023-03-02T10:00:26.779Z,1.40
2023-03-02T10:03:05.144Z,2.83
2023-03-02T10:05:52.033Z,2.50
2023-03-02T10:08:22.469Z,4.07
2023-03-02T10:11:14.740Z,2.30
2023-03-02T10:13:47.738Z,3.60
2023-03-02T10:16:26.886Z,2.17
2023-03-02T10:19:13.089Z,1.90
2023-03-02T10:21:43.578Z,1.80
2023-03-02T10:24:52.581Z,2.70
2023-03-02T10:27:42.998Z,2.70
2023-03-02T10:30:31.509Z,2.37
2023-03-02T10:33:10.034Z,1.47
2023-03-02T10:35:38.618Z,2.93
2023-03-02T10:38:23.725Z,2.80
2023-03-02T10:41:02.850Z,2.00
2023-03-02T10:43:37.640Z,2.23
2023-03-02T10:46:10.620Z,1.60
2023-03-02T10:48:52.480Z,2.80
2023-03-02T10:51:25.758Z,1.80
2023-03-02T10:54:12.470Z,1.90
2023-03-02T10:56:43.380Z,3.13
2023-03-02T10:59:40.705Z,2.77
2023-03-02T11:02:29.597Z,2.10
2023-03-02T11:05:28.967Z,2.67
2023-03-02T11:08:17.454Z,2.67
2023-03-02T11:11:03.376Z,2.90
2023-03-02T11:13:30.988Z,2.43
2023-03-02T11:16:00.621Z,2.07
2023-03-02T11:18:49.377Z,1.60
2023-03-02T11:21:27.703Z,2.07
2023-03-02T11:24:04.799Z,2.33
2023-03-02T11:26:38.849Z,2.00
2023-03-02T11:29:38.210Z,2.17
2023-03-02T11:32:15.863Z,2.73
2023-03-02T11:35:05.072Z,3.17
2023-03-02T11:37:52.137Z,1.53
2023-03-02T11:40:47.155Z,1.87
2023-03-02T11:43:14.681Z,1.50
2023-03-02T11:45:46.302Z,2.67
2023-03-02T11:48:13.250Z,2.43
2023-03-02T11:50:55.328Z,1.73
2023-03-02T11:53:27.359Z,1.73
2023-03-02T11:55:54.459Z,2.20
2023-03-02T11:58:26.983Z,2.03
2023-03-02T12:00:56.023Z,1.53
2023-03-02T12:03:32.796Z,2.37
2023-03-02T12:06:25.318Z,2.27
2023-03-02T12:09:06.502Z,1.77
2023-03-02T12:11:40.235Z,2.53
2023-03-02T12:14:37.788Z,1.87
2023-03-02T12:17:22.608Z,2.00
2023-03-02T12:19:52.114Z,1.70
2023-03-02T12:22:31.207Z,1.60
2023-03-02T12:25:18.756Z,1.50
2023-03-02T12:27:51.554Z,2.10
2023-03-02T12:30:27.623Z,2.83
2023-03-02T12:33:22.542Z,1.77
2023-03-02T12:35:53.042Z,1.90
2023-03-02T12:38:34.071Z,1.70
2023-03-02T12:41:31.412Z,2.20
2023-03-02T12:44:01.853Z,2.87
2023-03-02T12:46:37.138Z,1.60
2023-03-02T12:49:05.939Z,1.90
2023-03-02T12:51:45.875Z,2.43
2023-03-02T12:54:25.365Z,1.80
2023-03-02T12:57:09.116Z,1.50
2023-03-02T12:59:36.609Z,1.93
2023-03-02T13:02:22.526Z,1.77
2023-03-02T13:05:04.027Z,2.67
2023-03-02T13:07:38.338Z,1.60
2023-03-02T13:10:29.663Z,1.73
2023-03-02T13:12:59.629Z,1.80
2023-03-02T13:15:26.882Z,1.50
2023-03-02T13:17:59.949Z,3.10
2023-03-02T13:20:30.049Z,1.40
2023-03-02T13:22:57.348Z,1.93
2023-03-02T13:25:31.254Z,1.83
2023-03-02T13:28:07.690Z,1.40
2023-03-02T13:30:37.649Z,1.40
2023-03-02T13:33:22.379Z,1.20
2023-03-02T13:35:49.576Z,2.03
2023-03-02T13:38:22.483Z,2.67
2023-03-02T13:40:52.082Z,2.07
2023-03-02T13:43:37.848Z,2.33
2023-03-02T13:46:24.847Z,1.17
2023-03-02T13:49:10.159Z,1.50
2023-03-02T13:51:46.542Z,2.60
2023-03-02T13:54:22.446Z,1.53
2023-03-02T13:56:51.444Z,1.70
2023-03-02T13:59:22.939Z,1.43
2023-03-02T14:01:50.745Z,2.70
2023-03-02T14:04:23.653Z,1.60
2023-03-02T14:06:52.227Z,2.00
2023-03-02T14:09:19.953Z,2.10
2023-03-02T14:11:53.621Z,3.07
2023-03-02T14:14:23.414Z,1.80
2023-03-02T14:16:50.998Z,1.63
2023-03-02T14:19:18.864Z,1.50
2023-03-02T14:21:46.821Z,1.60
2023-03-02T14:24:14.421Z,2.37
2023-03-02T14:26:44.662Z,1.77
2023-03-02T14:29:31.699Z,1.27
2023-03-02T14:32:03.971Z,1.40
2023-03-02T14:34:31.197Z,1.60
2023-03-02T14:37:02.836Z,1.30
2023-03-02T14:39:41.466Z,2.00
2023-03-02T14:42:22.866Z,2.77
2023-03-02T14:44:51.331Z,2.17
2023-03-02T14:47:22.262Z,1.60
2023-03-02T14:49:49.632Z,1.70
2023-03-02T14:52:56.334Z,1.63
2023-03-02T14:55:33.208Z,1.77
2023-03-02T14:58:03.404Z,1.93
2023-03-02T15:00:31.534Z,2.10
2023-03-02T15:03:00.031Z,2.17
2023-03-02T15:05:28.453Z,1.93
2023-03-02T15:07:58.729Z,1.30
2023-03-02T15:10:26.122Z,2.23
2023-03-02T15:12:54.403Z,2.37
2023-03-02T15:15:21.368Z,1.77
2023-03-02T15:17:48.456Z,1.50
2023-03-02T15:20:16.440Z,1.63
2023-03-02T15:22:43.843Z,2.00
2023-03-02T15:25:11.549Z,2.17
2023-03-02T15:27:38.663Z,2.47
2023-03-02T15:30:06.581Z,1.50
2023-03-02T15:32:33.881Z,1.77
2023-03-02T15:35:01.752Z,2.30
2023-03-02T15:37:28.947Z,2.50
2023-03-02T15:39:59.402Z,1.70
2023-03-02T15:42:27.155Z,1.70
2023-03-02T15:44:54.202Z,2.13
2023-03-02T15:47:21.585Z,2.27
2023-03-02T15:49:48.741Z,1.77
2023-03-02T15:52:15.872Z,2.00
2023-03-02T15:54:42.928Z,1.13
2023-03-02T15:57:10.355Z,1.53
2023-03-02T15:59:37.988Z,3.03
2023-03-02T16:02:05.481Z,1.53
2023-03-02T16:04:34.049Z,3.30
2023-03-02T16:07:01.370Z,1.20
2023-03-02T16:09:31.027Z,1.30
2023-03-02T16:11:59.206Z,1.60
2023-03-02T16:14:26.598Z,2.00
2023-03-02T16:16:53.888Z,1.67
2023-03-02T16:19:21.122Z,1.60
2023-03-02T16:21:50.251Z,1.47
2023-03-02T16:24:17.573Z,2.50
2023-03-02T16:26:45.660Z,1.77
2023-03-02T16:29:13.881Z,1.43
2023-03-02T16:31:42.034Z,1.97
2023-03-02T16:34:11.023Z,1.80
2023-03-02T16:36:39.982Z,2.07
2023-03-02T16:39:08.313Z,2.20
2023-03-02T16:41:36.380Z,1.73
2023-03-02T16:44:03.816Z,2.50
2023-03-02T16:46:36.440Z,1.93
2023-03-02T16:49:05.073Z,2.30
2023-03-02T16:51:32.749Z,2.50
2023-03-02T16:53:59.815Z,2.33
2023-03-02T16:56:26.951Z,1.97
2023-03-02T16:58:55.360Z,2.13
2023-03-02T17:01:23.522Z,2.13
2023-03-02T17:03:51.645Z,1.73
2023-03-02T17:06:21.606Z,2.37
2023-03-02T17:08:49.186Z,2.00
2023-03-02T17:11:16.379Z,1.70
2023-03-02T17:13:43.471Z,2.10
2023-03-02T17:16:10.880Z,2.30
2023-03-02T17:18:37.928Z,2.10
2023-03-02T17:21:05.753Z,1.73
2023-03-02T17:23:32.895Z,1.67
2023-03-02T17:25:59.941Z,1.80
2023-03-02T17:28:27.085Z,1.83
2023-03-02T17:30:54.375Z,1.70
2023-03-02T17:33:21.800Z,2.10
2023-03-02T17:35:48.903Z,2.40
2023-03-02T17:38:16.111Z,3.07
2023-03-02T17:40:43.944Z,1.93
2023-03-02T17:43:12.621Z,2.40
2023-03-02T17:45:40.293Z,1.77
2023-03-02T17:48:07.694Z,2.10
2023-03-02T17:50:34.929Z,2.20
2023-03-02T17:53:03.114Z,2.70
2023-03-02T17:55:30.397Z,1.50
2023-03-02T17:57:57.648Z,1.80
2023-03-02T18:00:25.594Z,2.23
2023-03-02T18:02:54.219Z,1.77
2023-03-02T18:05:22.408Z,1.77
2023-03-02T18:07:49.685Z,1.90
2023-03-02T18:10:17.181Z,2.07
2023-03-02T18:12:44.466Z,2.90
2023-03-02T18:15:12.347Z,1.80
2023-03-02T18:17:39.722Z,2.47
2023-03-02T18:20:09.457Z,2.30
2023-03-02T18:22:36.500Z,1.70
2023-03-02T18:25:04.212Z,2.17
2023-03-02T18:27:31.326Z,2.27
2023-03-02T18:29:58.362Z,1.63
2023-03-02T18:32:25.918Z,2.00
2023-03-02T18:34:53.182Z,2.00
2023-03-02T18:37:20.196Z,1.70
2023-03-02T18:39:47.200Z,2.03
2023-03-02T18:42:14.201Z,2.53
2023-03-02T18:44:41.427Z,1.50
2023-03-02T18:47:10.506Z,1.60
2023-03-02T18:49:38.426Z,1.50
2023-03-02T18:52:06.942Z,1.10
2023-03-02T18:54:34.603Z,2.20
2023-03-02T18:57:01.803Z,2.10
2023-03-02T18:59:30.120Z,2.30
2023-03-02T19:01:58.604Z,1.27
2023-03-02T19:04:26.883Z,1.67
2023-03-02T19:06:56.594Z,0.97
2023-03-02T19:09:23.947Z,1.33
2023-03-02T19:11:51.016Z,1.90
2023-03-02T19:14:18.491Z,1.50
2023-03-02T19:16:46.381Z,1.33
2023-03-02T19:19:13.912Z,1.50
2023-03-02T19:21:41.112Z,1.70
2023-03-02T19:24:08.647Z,1.33
2023-03-02T19:26:36.214Z,1.37
2023-03-02T19:29:03.828Z,1.20
2023-03-02T19:31:33.058Z,1.63
2023-03-02T19:34:00.269Z,1.80
2023-03-02T19:36:27.364Z,1.10
2023-03-02T19:38:54.495Z,1.30
2023-03-02T19:41:21.861Z,1.10
2023-03-02T19:43:48.953Z,1.50
2023-03-02T19:46:17.112Z,2.03
2023-03-02T19:48:44.591Z,1.37
2023-03-02T19:51:12.326Z,1.67
2023-03-02T19:53:42.995Z,1.57
2023-03-02T19:56:14.429Z,1.20
2023-03-02T19:58:53.655Z,2.17
2023-03-02T20:01:25.893Z,2.00
2023-03-02T20:03:54.782Z,1.23
2023-03-02T20:06:24.131Z,1.00
2023-03-02T20:08:51.675Z,1.07
2023-03-02T20:11:18.760Z,2.40
2023-03-02T20:13:46.410Z,1.30
2023-03-02T20:16:14.786Z,1.10
2023-03-02T20:18:42.428Z,1.97
2023-03-02T20:21:09.609Z,1.23
2023-03-02T20:23:36.794Z,1.60
2023-03-02T20:26:05.356Z,2.03
2023-03-02T20:28:33.286Z,1.77
2023-03-02T20:31:04.313Z,1.33
2023-03-02T20:33:35.206Z,1.80
2023-03-02T20:36:04.079Z,1.07
2023-03-02T20:38:43.781Z,1.60
2023-03-02T20:41:13.283Z,1.63
2023-03-02T20:43:41.492Z,1.93
2023-03-02T20:46:10.286Z,1.07
2023-03-02T20:48:37.377Z,1.70
2023-03-02T20:51:04.627Z,1.70
2023-03-02T20:53:32.293Z,1.00
2023-03-02T20:55:59.275Z,1.30
2023-03-02T20:58:26.604Z,1.33
2023-03-02T21:00:55.929Z,1.10
2023-03-02T21:03:23.135Z,1.47
2023-03-02T21:05:50.207Z,1.20
2023-03-02T21:08:17.264Z,1.00
2023-03-02T21:10:44.974Z,1.33
2023-03-02T21:13:14.336Z,1.40
2023-03-02T21:15:43.282Z,1.20
2023-03-02T21:18:10.365Z,2.10
2023-03-02T21:20:37.897Z,1.23
2023-03-02T21:23:05.387Z,1.20
2023-03-02T21:25:33.389Z,1.40
2023-03-02T21:28:00.599Z,1.10
2023-03-02T21:30:31.367Z,1.30
2023-03-02T21:32:59.880Z,1.87
2023-03-02T21:35:27.074Z,1.20
2023-03-02T21:37:58.000Z,1.67
2023-03-02T21:40:32.182Z,1.20
2023-03-02T21:43:00.573Z,1.17
2023-03-02T21:45:29.081Z,0.97
2023-03-02T21:47:56.142Z,1.30
2023-03-02T21:50:26.726Z,0.90
2023-03-02T21:52:55.615Z,1.27
2023-03-02T21:55:22.817Z,1.67
2023-03-02T21:57:49.950Z,1.20
2023-03-02T22:00:23.702Z,2.90
2023-03-02T22:02:51.313Z,1.20
2023-03-02T22:05:19.202Z,1.20
2023-03-02T22:07:46.970Z,1.20
2023-03-02T22:10:38.162Z,1.17
2023-03-02T22:13:15.823Z,1.30
2023-03-02T22:15:43.445Z,1.30
2023-03-02T22:18:19.888Z,1.30
2023-03-02T22:20:50.092Z,1.00
2023-03-02T22:23:21.123Z,1.20
2023-03-02T22:25:51.488Z,1.10
2023-03-02T22:28:21.166Z,1.20
2023-03-02T22:30:53.194Z,1.20
2023-03-02T22:33:25.738Z,1.47
2023-03-02T22:35:59.296Z,1.30
2023-03-02T22:38:28.646Z,1.30
2023-03-02T22:40:56.913Z,1.00
2023-03-02T22:43:35.047Z,1.97
2023-03-02T22:46:08.164Z,1.10
2023-03-02T22:48:36.596Z,1.00
2023-03-02T22:51:13.305Z,1.20
2023-03-02T22:53:57.290Z,1.10
2023-03-02T22:56:38.623Z,1.10
2023-03-02T22:59:19.436Z,1.00
2023-03-02T23:01:46.568Z,1.30
2023-03-02T23:04:20.031Z,1.33
2023-03-02T23:07:00.123Z,1.00
2023-03-02T23:09:32.755Z,1.40
2023-03-02T23:12:05.127Z,1.13
2023-03-02T23:14:39.307Z,1.20
2023-03-02T23:17:15.497Z,1.20
2023-03-02T23:19:42.581Z,2.53
2023-03-02T23:22:10.140Z,1.33
2023-03-02T23:24:37.265Z,1.50
2023-03-02T23:27:04.521Z,1.30
2023-03-02T23:29:31.780Z,1.20
2023-03-02T23:31:58.889Z,1.53
2023-03-02T23:34:26.181Z,1.20
2023-03-02T23:36:53.369Z,1.03
2023-03-02T23:39:20.377Z,1.43
2023-03-02T23:41:47.685Z,3.33
2023-03-02T23:44:14.896Z,1.93
2023-03-02T23:46:42.151Z,1.50
2023-03-02T23:49:09.179Z,1.50
2023-03-02T23:51:36.275Z,1.40
2023-03-02T23:54:04.830Z,1.10
2023-03-02T23:56:32.265Z,1.00
2023-03-02T23:58:59.533Z,1.43
